Deweyville, Texas
Current Conditions -  °F | °C
As of 1:35 PM on Saturday 25 Oct 2014 (Local Time) from KORG Reporting Station
Clear Clear  
Wind Chill: 26°   Ceiling: Unl
Heat Index: 26°   Visibility: 10mi
Dew Point: 10°   Wind: 3mph
Humidity: 37%   Direction: 360°N
Pressure: 30.15"   Gusts: NA
Location:  30.3°N, 93.74°W
Report Text: KORG 251835Z AUTO 36003KT 10SM CLR 26/10 A3015 RMK AO2 T02590103
Loading
Personal Weather Stations






























Interactive Weather Map
Tropical Storm Tracking
New forecast layout! Learn more

10-Day Weather Forecast

Advertisements
Track Severe Weather on mobile